createdAt,value
2018-03-18T00:00:55.004Z,999.58
2018-03-18T00:02:49.545Z,999.61
2018-03-18T00:03:49.460Z,999.60
2018-03-18T00:05:44.795Z,999.71
2018-03-18T00:06:43.691Z,999.60
2018-03-18T00:08:37.188Z,999.64
2018-03-18T00:09:37.046Z,999.56
2018-03-18T00:11:30.471Z,999.69
2018-03-18T00:12:30.373Z,999.68
2018-03-18T00:14:23.738Z,999.62
2018-03-18T00:15:23.696Z,999.61
2018-03-18T00:17:17.295Z,999.61
2018-03-18T00:18:17.101Z,999.60
2018-03-18T00:20:10.199Z,999.57
2018-03-18T00:21:09.921Z,999.61
2018-03-18T00:23:03.480Z,999.72
2018-03-18T00:24:03.284Z,999.68
2018-03-18T00:25:56.648Z,999.61
2018-03-18T00:26:56.564Z,999.64
2018-03-18T00:28:50.961Z,999.65
2018-03-18T00:29:50.922Z,999.69
2018-03-18T00:31:51.418Z,999.70
2018-03-18T00:32:43.792Z,999.66
2018-03-18T00:34:38.213Z,999.69
2018-03-18T00:35:38.197Z,999.80
2018-03-18T00:37:32.507Z,999.67
2018-03-18T00:38:33.276Z,999.69
2018-03-18T00:40:25.841Z,999.71
2018-03-18T00:41:25.799Z,999.69
2018-03-18T00:43:19.196Z,999.67
2018-03-18T00:44:19.133Z,999.69
2018-03-18T00:46:12.202Z,999.68
2018-03-18T00:47:11.986Z,999.78
2018-03-18T00:49:05.993Z,999.71
2018-03-18T00:50:05.935Z,999.66
2018-03-18T00:51:59.393Z,999.70
2018-03-18T00:52:59.276Z,999.71
2018-03-18T00:54:52.665Z,999.68
2018-03-18T00:55:55.170Z,999.67
2018-03-18T00:57:45.789Z,999.69
2018-03-18T00:58:46.041Z,999.71
2018-03-18T01:00:38.496Z,999.68
2018-03-18T01:01:38.258Z,999.71
2018-03-18T01:03:31.216Z,999.69
2018-03-18T01:04:31.149Z,999.74
2018-03-18T01:06:24.697Z,999.73
2018-03-18T01:07:23.979Z,999.69
2018-03-18T01:09:17.041Z,999.74
2018-03-18T01:10:16.816Z,999.68
2018-03-18T01:12:10.180Z,999.74
2018-03-18T01:13:10.160Z,999.69
2018-03-18T01:15:03.125Z,999.72
2018-03-18T01:16:03.005Z,999.78
2018-03-18T01:17:56.665Z,999.81
2018-03-18T01:18:56.329Z,999.76
2018-03-18T01:20:50.254Z,999.77
2018-03-18T01:21:49.345Z,999.75
2018-03-18T01:23:42.409Z,999.72
2018-03-18T01:24:42.133Z,999.73
2018-03-18T01:26:35.463Z,999.72
2018-03-18T01:27:35.936Z,999.73
2018-03-18T01:29:28.366Z,999.72
2018-03-18T01:30:28.208Z,999.74
2018-03-18T01:32:21.637Z,999.77
2018-03-18T01:33:21.541Z,999.70
2018-03-18T01:35:14.519Z,999.73
2018-03-18T01:36:14.385Z,999.71
2018-03-18T01:38:08.339Z,999.67
2018-03-18T01:39:08.320Z,999.64
2018-03-18T01:41:01.442Z,999.68
2018-03-18T01:42:01.151Z,999.65
2018-03-18T01:43:54.615Z,999.69
2018-03-18T01:44:54.524Z,999.65
2018-03-18T01:46:48.236Z,999.70
2018-03-18T01:47:47.857Z,999.63
2018-03-18T01:49:42.044Z,999.69
2018-03-18T01:50:42.372Z,999.72
2018-03-18T01:52:35.331Z,999.65
2018-03-18T01:53:35.158Z,999.58
2018-03-18T01:55:29.093Z,999.63
2018-03-18T01:56:28.489Z,999.64
2018-03-18T01:58:21.871Z,999.60
2018-03-18T01:59:22.409Z,999.63
2018-03-18T02:01:15.266Z,999.56
2018-03-18T02:02:15.129Z,999.53
2018-03-18T02:04:08.622Z,999.56
2018-03-18T02:05:09.089Z,999.52
2018-03-18T02:07:01.655Z,999.59
2018-03-18T02:08:01.344Z,999.58
2018-03-18T02:09:54.293Z,999.54
2018-03-18T02:10:54.368Z,999.56
2018-03-18T02:12:47.106Z,999.53
2018-03-18T02:13:47.602Z,999.53
2018-03-18T02:15:40.442Z,999.52
2018-03-18T02:16:40.372Z,999.51
2018-03-18T02:18:33.737Z,999.50
2018-03-18T02:19:33.699Z,999.51
2018-03-18T02:21:26.586Z,999.46
2018-03-18T02:22:26.552Z,999.42
2018-03-18T02:24:19.902Z,999.48
2018-03-18T02:25:22.471Z,999.46
2018-03-18T02:27:13.284Z,999.46
2018-03-18T02:28:13.791Z,999.42
2018-03-18T02:30:07.530Z,999.46
2018-03-18T02:31:07.428Z,999.49
2018-03-18T02:33:00.984Z,999.49
2018-03-18T02:34:00.758Z,999.42
2018-03-18T02:35:53.945Z,999.50
2018-03-18T02:36:53.594Z,999.46
2018-03-18T02:38:47.043Z,999.47
2018-03-18T02:39:46.993Z,999.49
2018-03-18T02:41:40.638Z,999.46
2018-03-18T02:42:40.882Z,999.45
2018-03-18T02:44:34.250Z,999.46
2018-03-18T02:45:33.644Z,999.45
2018-03-18T02:47:27.172Z,999.42
2018-03-18T02:48:27.607Z,999.38
2018-03-18T02:50:19.914Z,999.46
2018-03-18T02:51:19.881Z,999.42
2018-03-18T02:53:12.894Z,999.38
2018-03-18T02:54:12.748Z,999.46
2018-03-18T02:56:05.636Z,999.42
2018-03-18T02:57:05.590Z,999.44
2018-03-18T02:58:59.207Z,999.42
2018-03-18T02:59:58.894Z,999.41
2018-03-18T03:01:52.361Z,999.48
2018-03-18T03:02:52.258Z,999.44
2018-03-18T03:04:48.683Z,999.40
2018-03-18T03:05:45.700Z,999.45
2018-03-18T03:07:38.870Z,999.41
2018-03-18T03:08:38.438Z,999.41
2018-03-18T03:10:31.800Z,999.40
2018-03-18T03:11:31.775Z,999.37
2018-03-18T03:13:25.263Z,999.38
2018-03-18T03:14:24.608Z,999.33
2018-03-18T03:16:18.077Z,999.36
2018-03-18T03:17:17.950Z,999.30
2018-03-18T03:19:12.965Z,999.35
2018-03-18T03:20:12.303Z,999.32
2018-03-18T03:22:06.766Z,999.35
2018-03-18T03:23:09.232Z,999.35
2018-03-18T03:25:00.377Z,999.37
2018-03-18T03:26:00.007Z,999.34
2018-03-18T03:27:52.907Z,999.33
2018-03-18T03:28:52.813Z,999.36
2018-03-18T03:30:46.302Z,999.36
2018-03-18T03:31:46.523Z,999.32
2018-03-18T03:33:39.663Z,999.41
2018-03-18T03:34:39.496Z,999.36
2018-03-18T03:36:32.878Z,999.42
2018-03-18T03:37:32.829Z,999.41
2018-03-18T03:39:26.210Z,999.53
2018-03-18T03:40:26.148Z,999.46
2018-03-18T03:42:19.162Z,999.43
2018-03-18T03:43:18.998Z,999.47
2018-03-18T03:45:14.564Z,999.47
2018-03-18T03:46:12.958Z,999.45
2018-03-18T03:48:05.231Z,999.47
2018-03-18T03:49:05.216Z,999.49
2018-03-18T03:50:58.680Z,999.47
2018-03-18T03:51:58.539Z,999.47
2018-03-18T03:53:51.949Z,999.43
2018-03-18T03:54:51.866Z,999.41
2018-03-18T03:56:44.744Z,999.46
2018-03-18T03:57:44.742Z,999.46
2018-03-18T03:59:38.096Z,999.35
2018-03-18T04:00:38.037Z,999.39
2018-03-18T04:02:31.604Z,999.36
2018-03-18T04:03:31.441Z,999.34
2018-03-18T04:05:24.781Z,999.37
2018-03-18T04:06:24.732Z,999.38
2018-03-18T04:08:19.125Z,999.43
2018-03-18T04:09:19.098Z,999.41
2018-03-18T04:11:12.934Z,999.46
2018-03-18T04:12:12.406Z,999.39
2018-03-18T04:14:05.596Z,999.43
2018-03-18T04:15:05.365Z,999.46
2018-03-18T04:16:58.809Z,999.47
2018-03-18T04:17:58.693Z,999.53
2018-03-18T04:19:52.665Z,999.53
2018-03-18T04:20:52.054Z,999.63
2018-03-18T04:22:45.205Z,999.60
2018-03-18T04:23:44.882Z,999.64
2018-03-18T04:25:38.821Z,999.54
2018-03-18T04:26:38.224Z,999.65
2018-03-18T04:28:31.729Z,999.59
2018-03-18T04:29:31.600Z,999.60
2018-03-18T04:31:24.448Z,999.65
2018-03-18T04:32:24.411Z,999.69
2018-03-18T04:34:17.842Z,999.63
2018-03-18T04:35:17.745Z,999.71
2018-03-18T04:37:10.632Z,999.68
2018-03-18T04:38:10.602Z,999.68
2018-03-18T04:40:03.677Z,999.72
2018-03-18T04:41:03.427Z,999.70
2018-03-18T04:42:56.394Z,999.67
2018-03-18T04:43:56.296Z,999.70
2018-03-18T04:45:50.926Z,999.66
2018-03-18T04:46:51.235Z,999.68
2018-03-18T04:48:44.991Z,999.70
2018-03-18T04:49:45.001Z,999.70
2018-03-18T04:51:38.562Z,999.73
2018-03-18T04:52:38.319Z,999.70
2018-03-18T04:54:32.321Z,999.69
2018-03-18T04:55:31.199Z,999.74
2018-03-18T04:57:24.127Z,999.73
2018-03-18T04:58:23.988Z,999.74
2018-03-18T05:00:17.359Z,999.69
2018-03-18T05:01:17.343Z,999.76
2018-03-18T05:03:10.880Z,999.73
2018-03-18T05:04:10.691Z,999.74
2018-03-18T05:06:03.562Z,999.74
2018-03-18T05:07:03.509Z,999.73
2018-03-18T05:08:57.243Z,999.74
2018-03-18T05:09:56.978Z,999.71
2018-03-18T05:11:50.574Z,999.76
2018-03-18T05:12:50.811Z,999.75
2018-03-18T05:14:43.122Z,999.75
2018-03-18T05:15:43.335Z,999.80
2018-03-18T05:17:37.461Z,999.85
2018-03-18T05:18:37.368Z,999.82
2018-03-18T05:20:31.882Z,999.78
2018-03-18T05:22:45.203Z,999.86
2018-03-18T05:23:45.094Z,999.88
2018-03-18T05:25:38.514Z,999.86
2018-03-18T05:26:38.423Z,999.91
2018-03-18T05:28:31.861Z,999.90
2018-03-18T05:29:31.804Z,999.88
2018-03-18T05:31:24.713Z,999.88
2018-03-18T05:32:24.629Z,999.88
2018-03-18T05:34:19.664Z,999.94
2018-03-18T05:35:18.949Z,999.93
2018-03-18T05:37:14.879Z,999.89
2018-03-18T05:38:15.359Z,999.91
2018-03-18T05:40:08.213Z,999.95
2018-03-18T05:41:08.181Z,999.95
2018-03-18T05:43:01.812Z,999.95
2018-03-18T05:44:01.557Z,999.92
2018-03-18T05:46:00.953Z,999.99
2018-03-18T05:46:54.384Z,1000.05
2018-03-18T05:48:47.803Z,1000.04
2018-03-18T05:49:47.724Z,1000.12
2018-03-18T05:51:41.126Z,1000.04
2018-03-18T05:52:41.072Z,1000.13
2018-03-18T05:54:35.708Z,1000.15
2018-03-18T05:55:35.473Z,1000.10
2018-03-18T05:57:31.290Z,1000.13
2018-03-18T05:58:31.273Z,1000.13
2018-03-18T06:00:24.654Z,1000.21
2018-03-18T06:01:24.644Z,1000.21
2018-03-18T06:03:18.014Z,1000.23
2018-03-18T06:04:17.966Z,1000.21
2018-03-18T06:06:11.462Z,1000.23
2018-03-18T06:07:11.286Z,1000.29
2018-03-18T06:09:29.038Z,1000.29
2018-03-18T06:10:32.067Z,1000.26
2018-03-18T06:12:22.336Z,1000.27
2018-03-18T06:13:21.960Z,1000.33
2018-03-18T06:15:15.571Z,1000.28
2018-03-18T06:16:15.249Z,1000.34
2018-03-18T06:18:14.309Z,1000.29
2018-03-18T06:19:11.684Z,1000.31
2018-03-18T06:21:05.575Z,1000.36
2018-03-18T06:22:05.480Z,1000.29
2018-03-18T06:23:59.669Z,1000.33
2018-03-18T06:24:59.135Z,1000.27
2018-03-18T06:26:52.218Z,1000.33
2018-03-18T06:27:52.139Z,1000.32
2018-03-18T06:29:45.734Z,1000.28
2018-03-18T06:30:45.480Z,1000.27
2018-03-18T06:32:39.452Z,1000.29
2018-03-18T06:33:38.823Z,1000.31
2018-03-18T06:35:32.271Z,1000.29
2018-03-18T06:36:32.790Z,1000.32
2018-03-18T06:38:25.572Z,1000.36
2018-03-18T06:39:25.517Z,1000.33
2018-03-18T06:41:21.468Z,1000.35
2018-03-18T06:42:21.386Z,1000.38
2018-03-18T06:44:15.740Z,1000.47
2018-03-18T06:45:16.291Z,1000.46
2018-03-18T06:47:09.128Z,1000.46
2018-03-18T06:48:09.035Z,1000.52
2018-03-18T06:50:03.478Z,1000.44
2018-03-18T06:51:03.415Z,1000.49
2018-03-18T06:52:57.795Z,1000.45
2018-03-18T06:53:57.736Z,1000.49
2018-03-18T06:55:51.117Z,1000.52
2018-03-18T06:56:51.082Z,1000.50
2018-03-18T06:58:43.999Z,1000.54
2018-03-18T06:59:43.954Z,1000.57
2018-03-18T07:01:37.444Z,1000.54
2018-03-18T07:02:37.262Z,1000.53
2018-03-18T07:04:33.219Z,1000.54
2018-03-18T07:05:30.612Z,1000.58
2018-03-18T07:07:24.370Z,1000.66
2018-03-18T07:08:24.547Z,1000.58
2018-03-18T07:10:17.334Z,1000.61
2018-03-18T07:11:17.280Z,1000.66
2018-03-18T07:13:10.448Z,1000.66
2018-03-18T07:14:10.147Z,1000.64
2018-03-18T07:16:04.155Z,1000.71
2018-03-18T07:17:04.079Z,1000.69
2018-03-18T07:18:57.844Z,1000.75
2018-03-18T07:19:57.537Z,1000.71
2018-03-18T07:21:55.299Z,1000.78
2018-03-18T07:22:55.268Z,1000.72
2018-03-18T07:24:49.290Z,1000.71
2018-03-18T07:25:49.163Z,1000.73
2018-03-18T07:27:42.608Z,1000.78
2018-03-18T07:28:42.536Z,1000.70
2018-03-18T07:30:35.965Z,1000.72
2018-03-18T07:31:35.860Z,1000.79
2018-03-18T07:33:29.828Z,1000.79
2018-03-18T07:34:29.276Z,1000.76
2018-03-18T07:36:22.778Z,1000.76
2018-03-18T07:37:25.034Z,1000.80
2018-03-18T07:39:18.695Z,1000.87
2018-03-18T07:40:15.984Z,1000.86
2018-03-18T07:42:09.818Z,1000.83
2018-03-18T07:43:09.439Z,1000.82
2018-03-18T07:45:03.686Z,1000.85
2018-03-18T07:46:02.715Z,1000.85
2018-03-18T07:47:56.155Z,1000.90
2018-03-18T07:48:56.244Z,1000.91
2018-03-18T07:50:50.393Z,1000.95
2018-03-18T07:51:49.802Z,1000.93
2018-03-18T07:53:42.859Z,1000.89
2018-03-18T07:54:42.709Z,1000.96
2018-03-18T07:56:35.615Z,1000.91
2018-03-18T07:57:35.564Z,1001.02
2018-03-18T07:59:29.877Z,1000.94
2018-03-18T08:00:28.986Z,1000.97
2018-03-18T08:02:22.339Z,1000.95
2018-03-18T08:03:22.579Z,1000.99
2018-03-18T08:05:16.238Z,1000.97
2018-03-18T08:06:16.183Z,1001.00
2018-03-18T08:08:08.992Z,1000.98
2018-03-18T08:09:08.955Z,1000.99
2018-03-18T08:11:02.430Z,1000.98
2018-03-18T08:12:02.345Z,1001.03
2018-03-18T08:13:55.187Z,1001.00
2018-03-18T08:14:55.173Z,1001.06
2018-03-18T08:16:48.678Z,1001.06
2018-03-18T08:17:49.055Z,1001.01
2018-03-18T08:19:41.356Z,1001.16
2018-03-18T08:20:41.319Z,1001.06
2018-03-18T08:22:34.416Z,1001.07
2018-03-18T08:23:34.170Z,1001.11
2018-03-18T08:25:27.400Z,1001.10
2018-03-18T08:26:27.078Z,1001.07
2018-03-18T08:28:20.641Z,1001.12
2018-03-18T08:29:20.417Z,1001.10
2018-03-18T08:31:14.872Z,1001.11
2018-03-18T08:32:14.791Z,1001.18
2018-03-18T08:34:08.726Z,1001.19
2018-03-18T08:35:08.121Z,1001.26
2018-03-18T08:37:01.434Z,1001.26
2018-03-18T08:38:00.958Z,1001.11
2018-03-18T08:39:54.038Z,1001.16
2018-03-18T08:40:53.840Z,1001.14
2018-03-18T08:42:47.266Z,1001.16
2018-03-18T08:43:47.175Z,1001.19
2018-03-18T08:45:40.531Z,1001.23
2018-03-18T08:46:40.509Z,1001.25
2018-03-18T08:48:33.936Z,1001.30
2018-03-18T08:49:33.851Z,1001.38
2018-03-18T08:51:27.255Z,1001.27
2018-03-18T08:52:27.236Z,1001.27
2018-03-18T08:54:20.661Z,1001.29
2018-03-18T08:55:20.579Z,1001.37
2018-03-18T08:57:13.466Z,1001.22
2018-03-18T08:58:13.441Z,1001.29
2018-03-18T09:00:06.847Z,1001.24
2018-03-18T09:01:06.775Z,1001.32
2018-03-18T09:02:59.708Z,1001.28
2018-03-18T09:03:59.656Z,1001.30
2018-03-18T09:05:52.536Z,1001.29
2018-03-18T09:06:52.478Z,1001.34
2018-03-18T09:08:45.408Z,1001.35
2018-03-18T09:09:45.328Z,1001.35
2018-03-18T09:11:38.750Z,1001.43
2018-03-18T09:12:38.696Z,1001.40
2018-03-18T09:14:32.178Z,1001.36
2018-03-18T09:15:31.556Z,1001.36
2018-03-18T09:17:24.565Z,1001.31
2018-03-18T09:18:24.401Z,1001.39
2018-03-18T09:20:17.426Z,1001.31
2018-03-18T09:21:17.219Z,1001.36
2018-03-18T09:23:10.131Z,1001.41
2018-03-18T09:24:10.104Z,1001.35
2018-03-18T09:26:03.533Z,1001.36
2018-03-18T09:27:02.932Z,1001.32
2018-03-18T09:28:57.389Z,1001.36
2018-03-18T09:29:57.275Z,1001.39
2018-03-18T09:31:50.358Z,1001.38
2018-03-18T09:32:50.708Z,1001.34
2018-03-18T09:34:43.103Z,1001.46
2018-03-18T09:35:43.013Z,1001.37
2018-03-18T09:37:37.680Z,1001.38
2018-03-18T09:38:36.330Z,1001.37
2018-03-18T09:40:37.795Z,1001.42
2018-03-18T09:41:36.859Z,1001.54
2018-03-18T09:43:32.529Z,1001.47
2018-03-18T09:44:31.249Z,1001.49
2018-03-18T09:46:26.294Z,1001.47
2018-03-18T09:47:25.228Z,1001.50
2018-03-18T09:49:18.572Z,1001.42
2018-03-18T09:50:18.601Z,1001.45
2018-03-18T09:52:12.116Z,1001.49
2018-03-18T09:53:11.875Z,1001.53
2018-03-18T09:55:05.847Z,1001.49
2018-03-18T09:56:04.737Z,1001.48
2018-03-18T09:57:58.277Z,1001.58
2018-03-18T09:58:58.126Z,1001.58
2018-03-18T10:01:06.632Z,1001.52
2018-03-18T10:02:06.161Z,1001.56
2018-03-18T10:03:59.446Z,1001.56
2018-03-18T10:04:59.166Z,1001.64
2018-03-18T10:06:54.275Z,1001.57
2018-03-18T10:07:53.207Z,1001.58
2018-03-18T10:09:47.728Z,1001.70
2018-03-18T10:10:47.285Z,1001.66
2018-03-18T10:12:40.506Z,1001.61
2018-03-18T10:13:39.994Z,1001.60
2018-03-18T10:15:33.449Z,1001.68
2018-03-18T10:16:32.852Z,1001.75
2018-03-18T10:18:26.301Z,1001.71
2018-03-18T10:19:26.344Z,1001.76
2018-03-18T10:21:19.760Z,1001.71
2018-03-18T10:22:19.679Z,1001.74
2018-03-18T10:24:13.077Z,1001.76
2018-03-18T10:25:13.606Z,1001.74
2018-03-18T10:27:06.417Z,1001.81
2018-03-18T10:28:06.369Z,1001.92
2018-03-18T10:30:00.445Z,1001.76
2018-03-18T10:30:59.332Z,1001.76
2018-03-18T10:32:52.333Z,1001.78
2018-03-18T10:33:52.099Z,1001.78
2018-03-18T10:35:45.138Z,1001.70
2018-03-18T10:36:44.947Z,1001.81
2018-03-18T10:38:38.394Z,1001.75
2018-03-18T10:39:38.410Z,1001.73
2018-03-18T10:41:31.839Z,1001.73
2018-03-18T10:42:31.749Z,1001.74
2018-03-18T10:44:24.672Z,1001.72
2018-03-18T10:45:24.582Z,1001.69
2018-03-18T10:47:18.159Z,1001.76
2018-03-18T10:48:17.926Z,1001.73
2018-03-18T10:50:11.413Z,1001.76
2018-03-18T10:51:11.230Z,1001.79
2018-03-18T10:53:04.626Z,1001.87
2018-03-18T10:54:04.587Z,1001.80
2018-03-18T10:55:57.976Z,1001.83
2018-03-18T10:56:57.947Z,1001.84
2018-03-18T10:58:50.783Z,1001.94
2018-03-18T10:59:50.756Z,1001.82
2018-03-18T11:01:44.428Z,1001.84
2018-03-18T11:02:44.089Z,1001.78
2018-03-18T11:04:37.694Z,1001.81
2018-03-18T11:05:37.496Z,1001.82
2018-03-18T11:07:30.518Z,1001.89
2018-03-18T11:08:30.350Z,1001.86
2018-03-18T11:10:23.789Z,1001.88
2018-03-18T11:11:23.693Z,1001.91
2018-03-18T11:13:17.079Z,1001.86
2018-03-18T11:14:17.022Z,1001.94
2018-03-18T11:16:09.943Z,1001.92
2018-03-18T11:17:09.873Z,1001.92
2018-03-18T11:19:03.259Z,1001.93
2018-03-18T11:20:03.218Z,1001.88
2018-03-18T11:21:56.124Z,1001.89
2018-03-18T11:22:56.082Z,1001.87
2018-03-18T11:24:48.970Z,1001.84
2018-03-18T11:25:48.953Z,1001.86
2018-03-18T11:27:42.376Z,1001.81
2018-03-18T11:28:42.309Z,1001.85
2018-03-18T11:30:35.677Z,1001.85
2018-03-18T11:31:35.642Z,1001.88
2018-03-18T11:33:29.018Z,1001.89
2018-03-18T11:34:28.981Z,1001.87
2018-03-18T11:36:21.868Z,1001.82
2018-03-18T11:37:21.835Z,1001.83
2018-03-18T11:39:14.761Z,1001.75
2018-03-18T11:40:14.948Z,1001.81
2018-03-18T11:42:07.842Z,1001.79
2018-03-18T11:43:07.565Z,1001.82
2018-03-18T11:45:00.470Z,1001.80
2018-03-18T11:46:00.424Z,1001.79
2018-03-18T11:47:53.565Z,1001.75
2018-03-18T11:48:53.269Z,1001.74
2018-03-18T11:50:46.688Z,1001.76
2018-03-18T11:51:46.640Z,1001.84
2018-03-18T11:53:39.541Z,1001.71
2018-03-18T11:55:55.457Z,1001.78
2018-03-18T11:56:55.387Z,1001.69
2018-03-18T11:58:48.793Z,1001.73
2018-03-18T11:59:48.794Z,1001.73
2018-03-18T12:01:42.296Z,1001.73
2018-03-18T12:02:42.063Z,1001.75
2018-03-18T12:04:35.518Z,1001.72
2018-03-18T12:05:35.444Z,1001.74
2018-03-18T12:07:28.864Z,1001.74
2018-03-18T12:08:28.782Z,1001.72
2018-03-18T12:10:21.683Z,1001.70
2018-03-18T12:11:21.643Z,1001.73
2018-03-18T12:13:15.194Z,1001.69
2018-03-18T12:14:14.984Z,1001.72
2018-03-18T12:16:09.775Z,1001.72
2018-03-18T12:17:09.364Z,1001.73
2018-03-18T12:19:02.941Z,1001.67
2018-03-18T12:20:02.713Z,1001.70
2018-03-18T12:21:55.790Z,1001.65
2018-03-18T12:22:55.558Z,1001.65
2018-03-18T12:24:48.587Z,1001.62
2018-03-18T12:25:49.032Z,1001.61
2018-03-18T12:27:41.453Z,1001.64
2018-03-18T12:28:41.252Z,1001.59
2018-03-18T12:30:35.786Z,1001.61
2018-03-18T12:31:35.644Z,1001.66
2018-03-18T12:33:28.484Z,1001.58
2018-03-18T12:34:28.459Z,1001.58
2018-03-18T12:36:22.444Z,1001.61
2018-03-18T12:37:21.789Z,1001.72
2018-03-18T12:39:14.844Z,1001.56
2018-03-18T12:40:14.640Z,1001.55
2018-03-18T12:42:08.258Z,1001.56
2018-03-18T12:43:07.996Z,1001.60
2018-03-18T12:45:01.442Z,1001.49
2018-03-18T12:46:03.918Z,1001.57
2018-03-18T12:47:55.030Z,1001.58
2018-03-18T12:48:54.693Z,1001.53
2018-03-18T12:50:48.250Z,1001.57
2018-03-18T12:51:48.095Z,1001.51
2018-03-18T12:53:40.992Z,1001.45
2018-03-18T12:54:40.928Z,1001.43
2018-03-18T12:56:34.381Z,1001.49
2018-03-18T12:57:34.269Z,1001.44
2018-03-18T12:59:27.497Z,1001.50
2018-03-18T13:00:27.069Z,1001.41
2018-03-18T13:02:20.479Z,1001.39
2018-03-18T13:03:19.925Z,1001.42
2018-03-18T13:05:13.166Z,1001.43
2018-03-18T13:06:12.837Z,1001.38
2018-03-18T13:08:06.506Z,1001.39
2018-03-18T13:09:06.699Z,1001.42
2018-03-18T13:10:59.583Z,1001.41
2018-03-18T13:11:59.663Z,1001.39
2018-03-18T13:13:52.881Z,1001.40
2018-03-18T13:14:52.820Z,1001.38
2018-03-18T13:16:46.488Z,1001.38
2018-03-18T13:17:46.177Z,1001.44
2018-03-18T13:19:40.130Z,1001.32
2018-03-18T13:20:39.043Z,1001.36
2018-03-18T13:22:32.679Z,1001.42
2018-03-18T13:23:32.374Z,1001.39
2018-03-18T13:25:25.889Z,1001.31
2018-03-18T13:26:26.195Z,1001.37
2018-03-18T13:28:19.514Z,1001.34
2018-03-18T13:29:19.084Z,1001.40
2018-03-18T13:31:12.209Z,1001.36
2018-03-18T13:32:12.509Z,1001.38
2018-03-18T13:34:05.940Z,1001.41
2018-03-18T13:35:05.268Z,1001.36
2018-03-18T13:36:59.038Z,1001.40
2018-03-18T13:37:59.213Z,1001.40
2018-03-18T13:39:52.018Z,1001.39
2018-03-18T13:40:52.403Z,1001.40
2018-03-18T13:42:45.929Z,1001.38
2018-03-18T13:43:45.601Z,1001.37
2018-03-18T13:45:39.299Z,1001.38
2018-03-18T13:46:38.660Z,1001.32
2018-03-18T13:48:32.023Z,1001.37
2018-03-18T13:49:32.002Z,1001.32
2018-03-18T13:51:25.405Z,1001.33
2018-03-18T13:52:25.314Z,1001.37
2018-03-18T13:54:18.463Z,1001.36
2018-03-18T13:55:18.197Z,1001.31
2018-03-18T13:57:11.062Z,1001.34
2018-03-18T13:58:11.623Z,1001.29
2018-03-18T14:00:05.390Z,1001.33
2018-03-18T14:01:04.389Z,1001.34
2018-03-18T14:02:57.808Z,1001.27
2018-03-18T14:03:57.734Z,1001.39
2018-03-18T14:05:50.827Z,1001.30
2018-03-18T14:06:50.603Z,1001.34
2018-03-18T14:08:43.965Z,1001.32
2018-03-18T14:09:43.940Z,1001.28
2018-03-18T14:11:36.877Z,1001.32
2018-03-18T14:12:36.867Z,1001.32
2018-03-18T14:14:30.008Z,1001.25
2018-03-18T14:15:29.663Z,1001.21
2018-03-18T14:17:22.524Z,1001.24
2018-03-18T14:18:22.493Z,1001.19
2018-03-18T14:20:15.524Z,1001.20
2018-03-18T14:21:15.343Z,1001.22
2018-03-18T14:23:08.715Z,1001.22
2018-03-18T14:24:08.680Z,1001.20
2018-03-18T14:26:02.065Z,1001.21
2018-03-18T14:27:02.036Z,1001.23
2018-03-18T14:28:54.992Z,1001.29
2018-03-18T14:29:54.882Z,1001.20
2018-03-18T14:31:47.786Z,1001.26
2018-03-18T14:32:47.734Z,1001.35
2018-03-18T14:34:41.142Z,1001.38
2018-03-18T14:35:41.092Z,1001.37
2018-03-18T14:37:33.960Z,1001.40
2018-03-18T14:38:33.942Z,1001.36
2018-03-18T14:40:26.842Z,1001.38
2018-03-18T14:41:26.778Z,1001.45
2018-03-18T14:43:19.658Z,1001.42
2018-03-18T14:44:19.633Z,1001.41
2018-03-18T14:46:13.137Z,1001.48
2018-03-18T14:47:12.990Z,1001.45
2018-03-18T14:49:06.436Z,1001.51
2018-03-18T14:50:05.838Z,1001.45
2018-03-18T14:51:59.199Z,1001.45
2018-03-18T14:52:59.166Z,1001.48
2018-03-18T14:54:52.058Z,1001.49
2018-03-18T14:55:52.016Z,1001.47
2018-03-18T14:57:45.404Z,1001.48
2018-03-18T14:58:45.376Z,1001.49
2018-03-18T15:00:38.779Z,1001.50
2018-03-18T15:01:39.309Z,1001.52
2018-03-18T15:03:31.716Z,1001.55
2018-03-18T15:04:32.169Z,1001.53
2018-03-18T15:06:24.505Z,1001.53
2018-03-18T15:07:24.430Z,1001.52
2018-03-18T15:09:17.810Z,1001.52
2018-03-18T15:10:17.770Z,1001.49
2018-03-18T15:12:11.191Z,1001.54
2018-03-18T15:13:11.140Z,1001.54
2018-03-18T15:15:04.506Z,1001.57
2018-03-18T15:16:04.462Z,1001.61
2018-03-18T15:17:57.440Z,1001.53
2018-03-18T15:18:57.415Z,1001.59
2018-03-18T15:20:50.816Z,1001.60
2018-03-18T15:21:50.767Z,1001.62
2018-03-18T15:23:44.239Z,1001.59
2018-03-18T15:24:44.118Z,1001.61
2018-03-18T15:26:36.990Z,1001.56
2018-03-18T15:27:36.959Z,1001.58
2018-03-18T15:29:30.431Z,1001.66
2018-03-18T15:30:30.324Z,1001.63
2018-03-18T15:32:23.427Z,1001.64
2018-03-18T15:33:23.327Z,1001.64
2018-03-18T15:35:16.153Z,1001.64
2018-03-18T15:36:16.125Z,1001.63
2018-03-18T15:38:09.013Z,1001.63
2018-03-18T15:39:08.987Z,1001.63
2018-03-18T15:41:01.901Z,1001.68
2018-03-18T15:42:01.836Z,1001.71
2018-03-18T15:43:54.738Z,1001.73
2018-03-18T15:44:54.696Z,1001.75
2018-03-18T15:46:48.092Z,1001.76
2018-03-18T15:47:48.076Z,1001.80
2018-03-18T15:49:41.484Z,1001.83
2018-03-18T15:50:40.886Z,1001.79
2018-03-18T15:52:33.891Z,1001.78
2018-03-18T15:53:33.776Z,1001.80
2018-03-18T15:55:27.114Z,1001.84
2018-03-18T15:56:27.082Z,1001.85
2018-03-18T15:58:19.984Z,1001.86
2018-03-18T15:59:19.928Z,1001.88
2018-03-18T16:01:13.049Z,1001.87
2018-03-18T16:02:12.792Z,1001.85
2018-03-18T16:04:05.689Z,1001.83
2018-03-18T16:05:05.629Z,1001.89
2018-03-18T16:06:59.061Z,1001.89
2018-03-18T16:07:59.000Z,1001.92
2018-03-18T16:09:51.878Z,1001.94
2018-03-18T16:10:51.857Z,1001.96
2018-03-18T16:12:46.530Z,1001.96
2018-03-18T16:13:46.460Z,1002.00
2018-03-18T16:16:30.565Z,1002.05
2018-03-18T16:17:30.529Z,1002.07
2018-03-18T16:19:23.895Z,1002.08
2018-03-18T16:20:23.903Z,1002.14
2018-03-18T16:22:18.022Z,1002.20
2018-03-18T16:23:17.246Z,1002.24
2018-03-18T16:25:10.147Z,1002.25
2018-03-18T16:26:10.109Z,1002.25
2018-03-18T16:28:04.118Z,1002.27
2018-03-18T16:29:03.508Z,1002.31
2018-03-18T16:30:57.000Z,1002.40
2018-03-18T16:31:56.297Z,1002.31
2018-03-18T16:33:49.207Z,1002.43
2018-03-18T16:34:49.142Z,1002.38
2018-03-18T16:36:42.539Z,1002.41
2018-03-18T16:37:42.511Z,1002.39
2018-03-18T16:39:36.272Z,1002.44
2018-03-18T16:40:35.875Z,1002.47
2018-03-18T16:42:29.267Z,1002.53
2018-03-18T16:43:29.219Z,1002.55
2018-03-18T16:45:22.769Z,1002.53
2018-03-18T16:46:23.052Z,1002.57
2018-03-18T16:48:18.793Z,1002.55
2018-03-18T16:49:15.467Z,1002.61
2018-03-18T16:51:08.381Z,1002.58
2018-03-18T16:52:08.332Z,1002.59
2018-03-18T16:54:01.650Z,1002.65
2018-03-18T16:55:01.192Z,1002.68
2018-03-18T16:56:54.059Z,1002.69
2018-03-18T16:57:54.048Z,1002.77
2018-03-18T16:59:46.944Z,1002.72
2018-03-18T17:00:46.897Z,1002.74
2018-03-18T17:02:39.791Z,1002.84
2018-03-18T17:03:39.747Z,1002.88
2018-03-18T17:05:33.256Z,1002.86
2018-03-18T17:06:33.138Z,1002.87
2018-03-18T17:08:25.970Z,1002.93
2018-03-18T17:09:26.032Z,1002.88
2018-03-18T17:11:20.492Z,1002.94
2018-03-18T17:12:20.288Z,1002.97
2018-03-18T17:14:13.198Z,1002.97
2018-03-18T17:15:13.478Z,1003.00
2018-03-18T17:17:57.691Z,1003.09
2018-03-18T17:18:59.624Z,1003.07
2018-03-18T17:20:52.353Z,1003.09
2018-03-18T17:21:52.450Z,1003.10
2018-03-18T17:23:46.287Z,1003.17
2018-03-18T17:24:44.927Z,1003.14
2018-03-18T17:26:38.039Z,1003.14
2018-03-18T17:27:37.855Z,1003.22
2018-03-18T17:29:31.234Z,1003.31
2018-03-18T17:30:34.698Z,1003.23
2018-03-18T17:32:24.220Z,1003.30
2018-03-18T17:33:25.136Z,1003.23
2018-03-18T17:35:19.175Z,1003.33
2018-03-18T17:36:18.023Z,1003.34
2018-03-18T17:38:11.400Z,1003.39
2018-03-18T17:39:11.348Z,1003.34
2018-03-18T17:41:05.746Z,1003.45
2018-03-18T17:42:04.698Z,1003.40
2018-03-18T17:43:58.186Z,1003.39